Time;durP1;ratioP1;P1;durP2;ratioP2;P2;SDS_P1;SDS_P2;PMS_P1;PMS_P2;Temp;Humidity;BMP_temperature;BMP_pressure;BME280_temperature;BME280_humidity;BME280_pressure;Samples;Min_cycle;Max_cycle;Signal;HPM_P1;HPM_P2
2022/06/05 00:01:23;;;;;;;14.13;2.00;;;19.30;98.20;;;;;;21053278;28;20089;-53
2022/06/05 00:11:37;;;;;;;10.23;2.10;;;19.60;97.10;;;;;;21045252;28;20048;-53
2022/06/05 00:21:40;;;;;;;11.93;2.28;;;19.90;95.90;;;;;;21051868;28;20036;-59
2022/06/05 00:32:08;;;;;;;14.25;2.17;;;19.80;95.30;;;;;;21051305;28;20653;-59
2022/06/05 00:42:16;;;;;;;11.02;1.55;;;19.80;94.90;;;;;;21048914;28;20105;-54
2022/06/05 00:52:21;;;;;;;11.20;2.30;;;20.00;94.90;;;;;;21050459;28;20062;-50
2022/06/05 01:02:23;;;;;;;11.52;2.55;;;20.10;94.10;;;;;;21049608;28;20035;-52
2022/06/05 01:13:02;;;;;;;18.55;2.78;;;20.30;93.30;;;;;;21068406;28;20069;-59
2022/06/05 01:23:48;;;;;;;11.13;2.42;;;20.70;92.70;;;;;;21077144;28;20036;-59
2022/06/05 01:34:07;;;;;;;17.17;3.03;;;20.30;93.50;;;;;;21076439;28;20032;-59
2022/06/05 01:44:18;;;;;;;22.48;3.05;;;20.80;92.50;;;;;;21074603;28;20043;-59
2022/06/05 01:54:37;;;;;;;22.38;2.60;;;20.70;91.60;;;;;;21075761;28;20040;-59
2022/06/05 02:04:46;;;;;;;15.60;2.37;;;21.10;90.60;;;;;;21076087;28;20036;-53
2022/06/05 02:14:50;;;;;;;19.95;2.40;;;20.80;90.70;;;;;;21075313;28;20062;-59
2022/06/05 02:24:54;;;;;;;20.58;2.55;;;19.90;91.70;;;;;;21063468;28;20036;-58
2022/06/05 02:35:19;;;;;;;7.45;1.88;;;19.50;93.60;;;;;;21061155;28;20056;-59
2022/06/05 02:45:38;;;;;;;10.07;2.50;;;18.90;97.70;;;;;;20983882;28;20040;-58
2022/06/05 02:55:42;;;;;;;7.53;2.10;;;17.80;99.90;;;;;;20975959;28;20040;-58
2022/06/05 03:05:45;;;;;;;16.73;3.50;;;16.70;99.90;;;;;;20974862;28;20033;-58
2022/06/05 03:15:47;;;;;;;7.18;1.80;;;16.00;99.90;;;;;;20991666;28;20036;-53
2022/06/05 03:25:51;;;;;;;10.48;2.63;;;15.60;99.90;;;;;;20973322;28;20102;-52
2022/06/05 03:35:54;;;;;;;14.90;1.83;;;15.30;99.90;;;;;;20972009;28;20059;-58
2022/06/05 03:46:06;;;;;;;11.48;2.08;;;15.00;99.90;;;;;;21046400;28;20048;-53
2022/06/05 03:56:17;;;;;;;14.02;2.40;;;15.00;99.90;;;;;;21054494;28;20044;-58
2022/06/05 04:06:22;;;;;;;11.77;2.15;;;14.90;99.90;;;;;;21046986;28;20035;-58
2022/06/05 04:16:29;;;;;;;7.85;2.53;;;14.90;99.90;;;;;;21052824;28;20058;-58
2022/06/05 04:26:34;;;;;;;10.98;2.35;;;15.00;99.90;;;;;;21069149;28;20036;-58
2022/06/05 04:36:37;;;;;;;8.95;2.17;;;15.00;99.90;;;;;;21068431;28;20036;-57
2022/06/05 04:46:40;;;;;;;10.35;3.55;;;15.20;99.90;;;;;;21044773;28;20032;-58
2022/06/05 04:56:43;;;;;;;7.13;3.13;;;15.30;99.90;;;;;;21050375;28;20039;-58
2022/06/05 05:06:46;;;;;;;7.70;3.10;;;15.50;99.90;;;;;;21067791;28;20036;-58
2022/06/05 05:16:49;;;;;;;9.07;3.20;;;15.70;99.90;;;;;;21049264;28;20066;-51
2022/06/05 05:26:51;;;;;;;7.68;3.58;;;16.00;99.90;;;;;;21049195;28;20032;-54
2022/06/05 05:36:54;;;;;;;12.52;5.38;;;16.50;99.90;;;;;;21048776;28;20056;-59
2022/06/05 05:46:57;;;;;;;15.40;6.18;;;16.90;99.90;;;;;;21048265;28;20036;-54
2022/06/05 05:57:00;;;;;;;12.02;6.63;;;17.30;99.90;;;;;;21055620;28;20024;-59
2022/06/05 06:07:02;;;;;;;13.10;6.28;;;17.90;99.90;;;;;;21063134;28;20385;-59
2022/06/05 06:17:05;;;;;;;19.85;6.35;;;19.10;99.90;;;;;;21062274;28;20106;-59
2022/06/05 06:27:08;;;;;;;13.05;6.57;;;21.40;99.90;;;;;;21078567;28;20560;-59
2022/06/05 06:37:10;;;;;;;17.80;6.18;;;22.90;99.90;;;;;;21051880;28;20047;-60
2022/06/05 06:47:14;;;;;;;14.27;7.30;;;23.80;99.90;;;;;;21076625;28;20097;-59
2022/06/05 06:57:17;;;;;;;13.80;6.22;;;24.90;99.90;;;;;;21059363;28;20036;-58
2022/06/05 07:07:20;;;;;;;12.40;7.63;;;27.00;98.30;;;;;;21057919;28;20547;-63
2022/06/05 07:17:22;;;;;;;13.90;6.30;;;29.20;93.10;;;;;;21041098;28;20081;-63
2022/06/05 07:27:26;;;;;;;21.35;8.95;;;29.40;91.20;;;;;;21056412;28;20036;-62
2022/06/05 07:37:28;;;;;;;16.30;4.07;;;29.30;89.10;;;;;;21054467;28;20105;-63
2022/06/05 07:47:33;;;;;;;14.20;5.90;;;29.60;85.40;;;;;;21055073;28;20040;-64
2022/06/05 07:57:35;;;;;;;20.90;5.63;;;30.20;89.20;;;;;;21054141;28;20048;-62
2022/06/05 08:07:38;;;;;;;11.50;4.80;;;30.00;89.40;;;;;;21052859;28;20035;-63
2022/06/05 08:17:41;;;;;;;13.77;4.13;;;30.10;90.30;;;;;;21051641;28;20040;-63
2022/06/05 08:27:43;;;;;;;13.00;4.47;;;30.30;90.10;;;;;;21051762;28;20089;-64
2022/06/05 08:48:20;;;;;;;11.48;3.72;;;30.00;87.50;;;;;;21051781;28;20040;-64
2022/06/05 08:58:32;;;;;;;10.73;3.95;;;30.10;83.50;;;;;;21050208;28;20052;-63
2022/06/05 09:08:39;;;;;;;8.90;3.28;;;29.70;84.20;;;;;;21050041;28;20028;-63
2022/06/05 09:18:48;;;;;;;7.47;4.05;;;29.80;86.60;;;;;;21049519;28;20078;-62
2022/06/05 09:29:10;;;;;;;6.35;3.80;;;28.90;86.90;;;;;;21051938;28;20060;-64
2022/06/05 09:39:35;;;;;;;8.85;3.80;;;28.30;91.40;;;;;;21063811;28;20449;-63
2022/06/05 09:49:45;;;;;;;8.80;4.30;;;28.70;91.20;;;;;;21065110;28;20077;-63
2022/06/05 10:00:00;;;;;;;14.70;5.55;;;28.30;91.00;;;;;;21062733;28;20032;-62
2022/06/05 10:10:06;;;;;;;16.85;6.22;;;27.90;94.50;;;;;;21063805;28;20435;-63
2022/06/05 10:20:24;;;;;;;11.60;6.65;;;28.50;94.90;;;;;;21062195;28;20028;-63
2022/06/05 10:30:33;;;;;;;15.00;7.55;;;29.50;94.10;;;;;;21060992;28;20028;-63
2022/06/05 10:40:53;;;;;;;15.52;7.70;;;28.60;94.30;;;;;;21058329;28;20101;-63
2022/06/05 10:51:12;;;;;;;14.30;9.10;;;27.50;94.90;;;;;;21059551;28;20485;-64
2022/06/05 11:01:35;;;;;;;17.13;9.90;;;27.50;96.70;;;;;;21058817;28;20028;-63
2022/06/05 11:22:26;;;;;;;18.13;11.20;;;27.20;95.70;;;;;;20898496;28;20044;-64
2022/06/05 11:32:56;;;;;;;23.95;12.90;;;27.70;98.00;;;;;;20880884;28;20139;-64
2022/06/05 11:43:26;;;;;;;22.42;10.93;;;27.80;97.00;;;;;;20928504;28;20094;-63
2022/06/05 11:53:50;;;;;;;19.08;11.57;;;27.80;96.00;;;;;;20985639;28;20089;-64
2022/06/05 12:04:10;;;;;;;14.70;11.23;;;28.50;96.80;;;;;;21053773;28;20032;-64
2022/06/05 12:14:38;;;;;;;26.80;13.15;;;28.70;97.50;;;;;;21070407;28;20078;-63
2022/06/05 12:24:51;;;;;;;19.58;10.73;;;27.60;96.50;;;;;;21069265;28;20412;-65
2022/06/05 12:35:04;;;;;;;18.48;12.15;;;27.80;96.80;;;;;;21052621;28;20503;-61
2022/06/05 12:45:22;;;;;;;17.67;11.23;;;26.50;97.00;;;;;;21066724;28;20550;-59
2022/06/05 12:55:49;;;;;;;15.85;10.55;;;25.10;99.50;;;;;;21050262;28;20401;-62
2022/06/05 13:06:04;;;;;;;15.70;9.13;;;24.20;99.90;;;;;;21048688;28;20040;-55
2022/06/05 13:16:16;;;;;;;15.48;6.68;;;24.30;99.90;;;;;;21032061;28;20044;-64
2022/06/05 13:27:05;;;;;;;16.90;7.10;;;25.10;98.90;;;;;;21049505;28;20393;-64
2022/06/05 13:37:12;;;;;;;19.33;7.30;;;26.60;96.00;;;;;;21046981;28;20097;-61
2022/06/05 13:47:35;;;;;;;21.38;7.05;;;26.60;96.20;;;;;;21064382;28;20036;-62
2022/06/05 13:57:40;;;;;;;13.43;6.88;;;27.20;95.60;;;;;;21047430;28;20105;-53
2022/06/05 14:07:50;;;;;;;17.30;7.07;;;25.50;97.10;;;;;;21047171;28;20036;-62
2022/06/05 14:17:57;;;;;;;17.38;7.22;;;26.20;95.20;;;;;;21050458;28;20039;-60
2022/06/05 14:28:12;;;;;;;18.17;7.07;;;25.00;97.70;;;;;;21061151;28;20040;-60
2022/06/05 14:38:18;;;;;;;12.27;5.50;;;24.00;98.90;;;;;;21059806;28;20165;-59
2022/06/05 14:48:38;;;;;;;15.32;4.90;;;23.30;99.70;;;;;;21059815;28;20040;-61
2022/06/05 14:58:59;;;;;;;14.88;4.57;;;24.80;99.90;;;;;;21059015;28;20036;-61
2022/06/05 15:09:33;;;;;;;19.98;4.90;;;26.50;96.80;;;;;;21058953;28;20028;-61
2022/06/05 15:19:37;;;;;;;13.27;3.95;;;26.50;96.40;;;;;;21057095;28;20378;-60
2022/06/05 15:29:58;;;;;;;11.50;5.72;;;26.50;96.00;;;;;;21056590;28;20035;-59
2022/06/05 15:40:17;;;;;;;15.50;5.88;;;25.10;96.30;;;;;;21054589;28;20066;-61
2022/06/05 15:50:38;;;;;;;17.05;6.07;;;23.00;99.70;;;;;;21055307;28;20093;-61
2022/06/05 16:01:27;;;;;;;13.07;6.07;;;21.70;99.90;;;;;;21054703;28;20058;-61
2022/06/05 16:11:52;;;;;;;15.23;5.85;;;21.40;99.90;;;;;;20728795;28;20212;-53
2022/06/05 16:22:30;;;;;;;14.75;6.22;;;21.60;99.90;;;;;;20730438;28;20046;-59
2022/06/05 16:32:32;;;;;;;13.87;6.30;;;21.20;99.90;;;;;;20712965;28;20050;-59
2022/06/05 16:42:38;;;;;;;18.83;7.97;;;20.60;99.90;;;;;;20821824;28;20049;-58
2022/06/05 16:52:44;;;;;;;14.38;2.83;;;20.00;99.90;;;;;;20967458;28;20032;-52
2022/06/05 17:03:04;;;;;;;8.27;2.90;;;16.50;99.90;;;;;;20984782;28;20089;-50
2022/06/05 17:13:15;;;;;;;9.05;3.28;;;12.80;99.90;;;;;;20966458;28;20446;-51
2022/06/05 17:23:19;;;;;;;9.52;3.38;;;12.00;99.90;;;;;;20976927;28;20116;-53
2022/06/05 17:33:32;;;;;;;5.90;2.15;;;12.30;99.90;;;;;;20981945;28;20037;-58
2022/06/05 17:44:00;;;;;;;3.58;1.77;;;12.90;99.90;;;;;;21036604;28;20413;-48
2022/06/05 17:54:26;;;;;;;4.93;2.10;;;14.00;99.90;;;;;;21057952;28;20450;-58
2022/06/05 18:04:31;;;;;;;6.68;2.50;;;14.10;99.90;;;;;;21063805;28;20059;-59
2022/06/05 18:14:51;;;;;;;5.07;2.50;;;13.60;99.90;;;;;;21063161;28;20040;-59
2022/06/05 18:24:54;;;;;;;5.00;2.00;;;13.60;99.90;;;;;;21062609;28;20036;-59
2022/06/05 18:35:21;;;;;;;8.43;2.42;;;13.40;99.90;;;;;;21061167;28;20047;-54
2022/06/05 18:45:28;;;;;;;5.22;2.35;;;13.30;99.90;;;;;;21059709;28;20444;-58
2022/06/05 18:55:41;;;;;;;5.32;2.38;;;13.30;99.90;;;;;;21076880;28;20065;-57
2022/06/05 19:05:50;;;;;;;8.48;2.53;;;13.10;99.90;;;;;;21041115;28;20039;-58
2022/06/05 19:15:56;;;;;;;10.90;2.72;;;12.90;99.90;;;;;;21058531;28;20435;-58
2022/06/05 19:26:04;;;;;;;5.82;2.30;;;12.90;99.90;;;;;;21057984;28;20035;-48
2022/06/05 19:46:37;;;;;;;3.35;1.50;;;13.30;99.90;;;;;;21046275;28;20493;-59
2022/06/05 19:56:40;;;;;;;9.18;1.83;;;13.20;99.90;;;;;;21038837;28;20058;-60
2022/06/05 20:06:57;;;;;;;5.28;0.80;;;13.10;99.90;;;;;;21054198;28;20039;-52
2022/06/05 20:17:26;;;;;;;4.63;1.05;;;12.90;99.90;;;;;;21053424;28;20048;-59
2022/06/05 20:28:10;;;;;;;4.60;1.17;;;13.20;99.90;;;;;;21052471;28;20035;-49
2022/06/05 20:38:13;;;;;;;7.95;1.60;;;13.20;99.90;;;;;;21028741;28;20094;-59
2022/06/05 20:48:32;;;;;;;6.57;1.20;;;13.20;99.90;;;;;;21051132;28;20477;-54
2022/06/05 20:58:40;;;;;;;2.30;1.20;;;13.10;99.90;;;;;;21050894;28;20054;-59
2022/06/05 21:08:43;;;;;;;4.10;1.10;;;13.10;99.90;;;;;;21049891;28;20058;-59
2022/06/05 21:18:46;;;;;;;1.85;0.82;;;13.10;99.90;;;;;;21049861;28;20097;-51
2022/06/05 21:28:50;;;;;;;1.17;0.47;;;13.10;99.90;;;;;;21058898;28;20036;-58
2022/06/05 21:39:10;;;;;;;0.95;0.30;;;13.00;99.90;;;;;;21064449;28;20048;-59
2022/06/05 21:49:14;;;;;;;1.43;0.20;;;13.10;99.90;;;;;;21066347;28;20113;-59
2022/06/05 21:59:18;;;;;;;0.77;0.20;;;13.00;99.90;;;;;;21064747;28;20036;-59
2022/06/05 22:09:21;;;;;;;0.40;0.20;;;12.80;99.90;;;;;;21063396;28;20412;-58
2022/06/05 22:19:31;;;;;;;0.90;0.17;;;13.10;99.90;;;;;;21062688;28;20036;-58
2022/06/05 22:29:36;;;;;;;1.75;0.35;;;13.10;99.90;;;;;;21062149;28;20028;-53
2022/06/05 22:39:38;;;;;;;0.30;0.10;;;13.10;99.90;;;;;;21058262;28;20043;-58
2022/06/05 22:49:41;;;;;;;0.60;0.20;;;13.20;99.90;;;;;;21060481;28;20405;-58
2022/06/05 22:59:44;;;;;;;1.85;0.28;;;13.20;99.90;;;;;;21059935;28;20040;-58
2022/06/05 23:09:46;;;;;;;0.57;0.20;;;13.30;99.90;;;;;;21058594;28;20036;-58
2022/06/05 23:19:48;;;;;;;1.02;0.20;;;13.30;99.90;;;;;;21075935;28;20028;-58
2022/06/05 23:29:52;;;;;;;0.22;0.10;;;13.40;99.90;;;;;;21058295;28;20051;-58
2022/06/05 23:40:03;;;;;;;0.95;0.30;;;13.30;99.90;;;;;;21055534;28;20048;-59
2022/06/05 23:50:07;;;;;;;0.57;0.30;;;13.30;99.90;;;;;;21055109;28;20493;-58
